createdAt,value
2018-12-14T00:01:44.024Z,-0.60
2018-12-14T00:05:48.330Z,-0.70
2018-12-14T00:09:52.647Z,-0.70
2018-12-14T00:13:56.813Z,-0.70
2018-12-14T00:18:01.055Z,-0.80
2018-12-14T00:22:07.612Z,-0.80
2018-12-14T00:26:11.704Z,-0.80
2018-12-14T00:30:15.986Z,-0.70
2018-12-14T00:34:20.155Z,-0.60
2018-12-14T00:38:24.378Z,-0.80
2018-12-14T00:42:28.528Z,-0.60
2018-12-14T00:46:34.757Z,-0.70
2018-12-14T00:50:38.919Z,-0.60
2018-12-14T00:54:43.151Z,-0.50
2018-12-14T00:58:47.392Z,-0.70
2018-12-14T01:02:51.611Z,-0.70
2018-12-14T01:06:55.816Z,-0.70
2018-12-14T01:10:59.996Z,-0.70
2018-12-14T01:15:04.291Z,-0.70
2018-12-14T01:19:08.605Z,-0.60
2018-12-14T01:23:12.764Z,-0.70
2018-12-14T01:27:17.039Z,-0.80
2018-12-14T01:31:21.325Z,-0.80
2018-12-14T01:35:25.544Z,-0.60
2018-12-14T01:39:29.753Z,-0.90
2018-12-14T01:43:33.921Z,-0.90
2018-12-14T01:47:38.132Z,-0.70
2018-12-14T01:51:42.261Z,-0.60
2018-12-14T01:55:46.449Z,-0.70
2018-12-14T01:59:50.557Z,-0.70
2018-12-14T02:03:54.729Z,-0.60
2018-12-14T02:07:58.872Z,-0.70
2018-12-14T02:12:03.023Z,-0.60
2018-12-14T02:16:07.169Z,-0.80
2018-12-14T02:20:11.350Z,-0.70
2018-12-14T02:24:15.487Z,-0.60
2018-12-14T02:28:19.679Z,-0.60
2018-12-14T02:32:23.910Z,-0.60
2018-12-14T02:36:28.164Z,-0.70
2018-12-14T02:40:32.368Z,-0.60
2018-12-14T02:44:36.523Z,-0.50
2018-12-14T02:48:40.715Z,-0.60
2018-12-14T02:52:44.949Z,-0.60
2018-12-14T02:56:49.062Z,-0.80
2018-12-14T03:00:53.324Z,-0.80
2018-12-14T03:04:57.667Z,-0.80
2018-12-14T03:09:01.823Z,-0.90
2018-12-14T03:13:06.060Z,-0.60
2018-12-14T03:17:10.374Z,-0.70
2018-12-14T03:21:14.631Z,-0.60
2018-12-14T03:25:18.864Z,-0.60
2018-12-14T03:29:23.143Z,-0.80
2018-12-14T03:33:27.359Z,-0.50
2018-12-14T03:37:32.600Z,-0.60
2018-12-14T03:41:36.752Z,-0.50
2018-12-14T03:45:41.020Z,-0.60
2018-12-14T03:49:45.215Z,-0.90
2018-12-14T03:53:49.462Z,-0.70
2018-12-14T03:57:54.598Z,-0.70
2018-12-14T04:01:58.917Z,-0.60
2018-12-14T04:06:03.221Z,-0.60
2018-12-14T04:10:07.773Z,-0.60
2018-12-14T04:14:12.102Z,-0.60
2018-12-14T04:18:16.289Z,-0.70
2018-12-14T04:22:20.490Z,-0.70
2018-12-14T04:26:24.641Z,-0.60
2018-12-14T04:30:28.874Z,-0.60
2018-12-14T04:34:33.146Z,-0.60
2018-12-14T04:38:37.403Z,-0.60
2018-12-14T04:42:48.675Z,-0.70
2018-12-14T04:46:47.998Z,-0.90
2018-12-14T04:50:52.200Z,-0.70
2018-12-14T04:54:56.365Z,-0.60
2018-12-14T04:59:00.511Z,-0.80
2018-12-14T05:03:04.825Z,-0.90
2018-12-14T05:07:08.984Z,-0.80
2018-12-14T05:11:13.268Z,-1.00
2018-12-14T05:15:17.500Z,-0.90
2018-12-14T05:19:21.648Z,-0.80
2018-12-14T05:23:25.828Z,-0.60
2018-12-14T05:27:29.997Z,-0.80
2018-12-14T05:31:34.166Z,-0.80
2018-12-14T05:35:38.384Z,-0.80
2018-12-14T05:39:42.707Z,-0.80
2018-12-14T05:43:46.969Z,-0.80
2018-12-14T05:47:51.178Z,-0.90
2018-12-14T05:51:55.369Z,-0.80
2018-12-14T05:55:59.524Z,-0.80
2018-12-14T06:00:03.865Z,-1.10
2018-12-14T06:04:08.161Z,-0.90
2018-12-14T06:08:12.288Z,-0.90
2018-12-14T06:12:16.566Z,-1.10
2018-12-14T06:16:24.286Z,-0.90
2018-12-14T06:20:28.963Z,-0.90
2018-12-14T06:24:33.173Z,-0.70
2018-12-14T06:28:37.340Z,-1.00
2018-12-14T06:32:41.552Z,-0.90
2018-12-14T06:36:49.975Z,-0.90
2018-12-14T06:40:54.715Z,-1.00
2018-12-14T06:44:59.236Z,-1.00
2018-12-14T06:49:03.547Z,-0.90
2018-12-14T06:53:08.194Z,-0.80
2018-12-14T06:57:12.413Z,-1.00
2018-12-14T07:01:16.751Z,-0.90
2018-12-14T07:05:21.286Z,-0.80
2018-12-14T07:09:26.097Z,-0.80
2018-12-14T07:13:34.235Z,-0.80
2018-12-14T07:17:38.575Z,-0.70
2018-12-14T07:21:42.867Z,-0.70
2018-12-14T07:25:47.538Z,-0.80
2018-12-14T07:29:51.844Z,-0.80
2018-12-14T07:33:56.067Z,-0.50
2018-12-14T07:38:00.358Z,-0.60
2018-12-14T07:42:04.578Z,-0.70
2018-12-14T07:46:08.709Z,-0.70
2018-12-14T07:50:13.005Z,-0.70
2018-12-14T07:54:17.187Z,-0.60
2018-12-14T07:58:21.347Z,-0.60
2018-12-14T08:02:25.607Z,-0.70
2018-12-14T08:06:29.771Z,-0.60
2018-12-14T08:10:34.231Z,-0.60
2018-12-14T08:14:39.746Z,-0.50
2018-12-14T08:18:44.511Z,-0.60
2018-12-14T08:22:48.903Z,-0.40
2018-12-14T08:26:53.145Z,-0.30
2018-12-14T08:30:57.399Z,-0.40
2018-12-14T08:35:01.968Z,-0.20
2018-12-14T08:39:07.722Z,-0.10
2018-12-14T08:43:12.008Z,0.00
2018-12-14T08:47:16.175Z,-0.10
2018-12-14T08:51:20.745Z,-0.20
2018-12-14T08:55:24.916Z,-0.30
2018-12-14T08:59:29.578Z,-0.10
2018-12-14T09:03:33.990Z,0.00
2018-12-14T09:07:38.174Z,0.10
2018-12-14T09:11:42.400Z,0.20
2018-12-14T09:15:46.714Z,0.30
2018-12-14T09:19:51.421Z,0.30
2018-12-14T09:23:55.712Z,0.10
2018-12-14T09:28:00.065Z,0.10
2018-12-14T09:32:04.540Z,0.20
2018-12-14T09:36:08.756Z,0.40
2018-12-14T09:40:13.002Z,0.50
2018-12-14T09:44:17.182Z,0.30
2018-12-14T09:48:21.591Z,0.40
2018-12-14T09:52:25.854Z,0.20
2018-12-14T09:56:30.471Z,0.60
2018-12-14T10:00:34.667Z,0.50
2018-12-14T10:04:38.880Z,0.70
2018-12-14T10:08:43.022Z,0.70
2018-12-14T10:12:47.227Z,0.60
2018-12-14T10:17:11.317Z,0.70
2018-12-14T10:21:15.786Z,0.80
2018-12-14T10:25:21.042Z,0.60
2018-12-14T10:29:25.311Z,0.40
2018-12-14T10:33:30.695Z,0.40
2018-12-14T10:37:34.878Z,0.70
2018-12-14T10:41:39.125Z,0.70
2018-12-14T10:45:43.531Z,0.70
2018-12-14T10:49:47.902Z,0.90
2018-12-14T10:53:52.064Z,1.00
2018-12-14T10:57:56.388Z,0.90
2018-12-14T11:02:00.588Z,0.70
2018-12-14T11:06:04.760Z,0.80
2018-12-14T11:10:09.793Z,0.50
2018-12-14T11:14:14.212Z,0.70
2018-12-14T11:18:18.533Z,0.80
2018-12-14T11:22:22.922Z,1.00
2018-12-14T11:26:27.078Z,0.90
2018-12-14T11:30:31.303Z,0.80
2018-12-14T11:34:35.453Z,0.80
2018-12-14T11:38:39.839Z,0.60
2018-12-14T11:42:44.035Z,0.90
2018-12-14T11:48:12.620Z,0.70
2018-12-14T11:52:16.893Z,0.60
2018-12-14T11:56:21.319Z,0.60
2018-12-14T12:00:25.522Z,0.80
2018-12-14T12:04:29.654Z,0.70
2018-12-14T12:08:33.785Z,0.50
2018-12-14T12:12:38.456Z,0.70
2018-12-14T12:16:42.626Z,0.60
2018-12-14T12:20:46.788Z,0.90
2018-12-14T12:24:50.931Z,0.60
2018-12-14T12:28:55.198Z,0.70
2018-12-14T12:32:59.363Z,0.60
2018-12-14T12:37:03.571Z,0.80
2018-12-14T12:41:07.924Z,0.90
2018-12-14T12:45:13.327Z,0.90
2018-12-14T12:49:17.582Z,0.80
2018-12-14T12:53:22.887Z,0.60
2018-12-14T12:57:27.404Z,0.80
2018-12-14T13:01:31.638Z,0.70
2018-12-14T13:05:36.191Z,0.60
2018-12-14T13:09:40.787Z,0.80
2018-12-14T13:13:45.313Z,0.90
2018-12-14T13:17:49.693Z,0.70
2018-12-14T13:21:54.365Z,1.10
2018-12-14T13:25:58.939Z,1.10
2018-12-14T13:30:03.319Z,1.10
2018-12-14T13:34:09.656Z,1.10
2018-12-14T13:38:17.003Z,1.00
2018-12-14T13:42:32.393Z,0.80
2018-12-14T13:46:39.436Z,0.80
2018-12-14T13:50:48.049Z,0.80
2018-12-14T13:54:56.040Z,0.60
2018-12-14T13:59:02.480Z,0.40
2018-12-14T14:03:08.557Z,0.40
2018-12-14T14:07:15.344Z,0.70
2018-12-14T14:11:20.904Z,0.80
2018-12-14T14:15:27.697Z,0.40
2018-12-14T14:19:34.396Z,0.30
2018-12-14T14:23:39.807Z,0.40
2018-12-14T14:27:47.275Z,0.20
2018-12-14T14:31:53.999Z,0.20
2018-12-14T14:36:00.535Z,0.10
2018-12-14T14:40:06.149Z,0.10
2018-12-14T14:44:12.121Z,0.10
2018-12-14T14:48:16.269Z,0.20
2018-12-14T14:52:20.469Z,0.00
2018-12-14T14:56:25.283Z,0.10
2018-12-14T15:00:32.224Z,0.10
2018-12-14T15:04:36.579Z,-0.10
2018-12-14T15:08:40.749Z,0.00
2018-12-14T15:12:45.171Z,0.20
2018-12-14T15:16:49.324Z,0.00
2018-12-14T15:20:53.535Z,0.00
2018-12-14T15:24:59.613Z,-0.10
2018-12-14T15:29:06.193Z,-0.40
2018-12-14T15:33:10.452Z,-0.30
2018-12-14T15:37:14.608Z,-0.40
2018-12-14T15:41:18.821Z,-0.70
2018-12-14T15:45:23.483Z,-0.50
2018-12-14T15:49:27.922Z,-0.50
2018-12-14T15:53:32.148Z,-0.50
2018-12-14T15:57:36.984Z,-0.40
2018-12-14T16:01:41.150Z,-0.60
2018-12-14T16:05:46.399Z,-0.60
2018-12-14T16:09:50.706Z,-0.60
2018-12-14T16:13:55.058Z,-0.50
2018-12-14T16:17:59.691Z,-0.60
2018-12-14T16:22:04.496Z,-0.70
2018-12-14T16:26:09.258Z,-0.70
2018-12-14T16:30:13.763Z,-0.90
2018-12-14T16:34:18.132Z,-0.70
2018-12-14T16:38:22.369Z,-0.70
2018-12-14T16:42:26.634Z,-0.60
2018-12-14T16:46:30.810Z,-0.70
2018-12-14T16:50:35.291Z,-0.70
2018-12-14T16:54:39.531Z,-0.60
2018-12-14T16:58:43.750Z,-0.60
2018-12-14T17:02:47.924Z,-0.50
2018-12-14T17:06:52.183Z,-0.60
2018-12-14T17:10:57.286Z,-0.60
2018-12-14T17:15:01.453Z,-0.60
2018-12-14T17:19:05.633Z,-0.50
2018-12-14T17:23:09.887Z,-0.50
2018-12-14T17:27:14.068Z,-0.60
2018-12-14T17:31:18.238Z,-0.60
2018-12-14T17:35:22.415Z,-0.50
2018-12-14T17:39:26.796Z,-0.40
2018-12-14T17:43:30.998Z,-0.60
2018-12-14T17:47:35.431Z,-0.80
2018-12-14T17:51:40.127Z,-0.80
2018-12-14T17:55:44.325Z,-0.80
2018-12-14T17:59:48.916Z,-0.80
2018-12-14T18:03:53.087Z,-0.80
2018-12-14T18:07:57.472Z,-0.80
2018-12-14T18:12:01.866Z,-0.80
2018-12-14T18:16:06.600Z,-0.90
2018-12-14T18:20:10.973Z,-0.80
2018-12-14T18:24:15.849Z,-0.90
2018-12-14T18:28:20.243Z,-1.00
2018-12-14T18:32:24.795Z,-1.00
2018-12-14T18:36:29.324Z,-1.00
2018-12-14T18:40:35.060Z,-1.00
2018-12-14T18:44:39.627Z,-1.20
2018-12-14T18:48:44.312Z,-1.00
2018-12-14T18:52:49.461Z,-1.30
2018-12-14T18:56:54.912Z,-1.10
2018-12-14T19:01:00.542Z,-1.30
2018-12-14T19:05:05.733Z,-1.20
2018-12-14T19:09:11.227Z,-1.20
2018-12-14T19:13:16.925Z,-1.20
2018-12-14T19:17:21.095Z,-1.20
2018-12-14T19:21:25.331Z,-1.10
2018-12-14T19:25:30.062Z,-1.50
2018-12-14T19:29:34.340Z,-1.40
2018-12-14T19:33:38.464Z,-1.60
2018-12-14T19:37:43.084Z,-1.30
2018-12-14T19:41:48.827Z,-1.30
2018-12-14T19:45:53.076Z,-1.40
2018-12-14T19:49:58.038Z,-1.30
2018-12-14T19:54:02.360Z,-1.40
2018-12-14T19:58:06.657Z,-1.30
2018-12-14T20:02:11.068Z,-1.30
2018-12-14T20:06:15.746Z,-1.50
2018-12-14T20:10:21.371Z,-1.30
2018-12-14T20:14:28.991Z,-1.30
2018-12-14T20:18:34.720Z,-1.40
2018-12-14T20:22:39.326Z,-1.50
2018-12-14T20:26:44.700Z,-1.50
2018-12-14T20:30:49.077Z,-1.40
2018-12-14T20:34:54.592Z,-1.60
2018-12-14T20:39:00.803Z,-1.70
2018-12-14T20:43:05.814Z,-1.70
2018-12-14T20:47:10.083Z,-1.70
2018-12-14T20:51:14.345Z,-1.60
2018-12-14T20:55:18.609Z,-1.80
2018-12-14T20:59:22.771Z,-1.80
2018-12-14T21:03:27.405Z,-1.80
2018-12-14T21:07:31.950Z,-1.60
2018-12-14T21:11:36.255Z,-1.50
2018-12-14T21:15:40.411Z,-1.60
2018-12-14T21:19:44.569Z,-1.60
2018-12-14T21:23:48.751Z,-1.60
2018-12-14T21:27:52.936Z,-1.80
2018-12-14T21:31:57.174Z,-1.80
2018-12-14T21:36:01.348Z,-1.70
2018-12-14T21:40:06.650Z,-1.60
2018-12-14T21:44:10.850Z,-1.60
2018-12-14T21:48:15.021Z,-1.80
2018-12-14T21:52:21.276Z,-1.80
2018-12-14T21:56:25.467Z,-1.80
2018-12-14T22:00:29.793Z,-1.60
2018-12-14T22:04:34.013Z,-1.80
2018-12-14T22:08:38.175Z,-1.90
2018-12-14T22:12:42.343Z,-1.60
2018-12-14T22:16:46.503Z,-1.60
2018-12-14T22:20:51.914Z,-1.70
2018-12-14T22:24:56.298Z,-1.80
2018-12-14T22:29:00.461Z,-2.00
2018-12-14T22:33:04.811Z,-1.80
2018-12-14T22:37:09.059Z,-1.70
2018-12-14T22:41:13.218Z,-1.90
2018-12-14T22:45:17.443Z,-1.90
2018-12-14T22:49:21.590Z,-2.00
2018-12-14T22:53:25.807Z,-1.70
2018-12-14T22:57:29.963Z,-2.00
2018-12-14T23:01:34.231Z,-2.00
2018-12-14T23:05:38.373Z,-2.00
2018-12-14T23:09:42.647Z,-2.00
2018-12-14T23:13:46.796Z,-1.70
2018-12-14T23:17:50.926Z,-1.90
2018-12-14T23:21:57.275Z,-1.70
2018-12-14T23:26:01.488Z,-1.70
2018-12-14T23:30:08.334Z,-1.80
2018-12-14T23:34:12.467Z,-2.00
2018-12-14T23:38:16.706Z,-1.90
2018-12-14T23:42:20.924Z,-1.90
2018-12-14T23:46:25.152Z,-2.00
2018-12-14T23:50:29.292Z,-1.90
2018-12-14T23:54:33.530Z,-2.00
2018-12-14T23:58:37.663Z,-1.70
